Terminal Aerodrome Forecast
Issued by NWS

Home | Current Version | Previous Version | Graphics & Text | Print | Product List | Glossary On
Versions: 1 2 3 4 5 6 7 8 9 10 11 12 13 14
000
FTUS43 KICT 242338
TAFSLN
TAF
KSLN 242338Z 2500/2524 28013G19KT P6SM BKN100
     FM250130 30017G24KT P6SM VCSH SCT050 BKN100
     FM250600 31023G29KT P6SM BKN050 OVC100
     FM251500 32028G36KT P6SM BKN050 OVC120
     FM252300 32008KT P6SM SCT250=

USA.gov is the U.S. government's official web portal to all federal, state and local government web resources and services.